createdAt,value
2023-02-24T00:01:24.990Z,8.95
2023-02-24T00:03:53.281Z,5.40
2023-02-24T00:06:20.993Z,4.50
2023-02-24T00:08:48.658Z,8.65
2023-02-24T00:11:18.882Z,7.68
2023-02-24T00:13:48.263Z,8.35
2023-02-24T00:16:17.925Z,10.90
2023-02-24T00:18:46.485Z,13.82
2023-02-24T00:21:15.498Z,12.18
2023-02-24T00:23:43.700Z,15.55
2023-02-24T00:26:12.157Z,11.13
2023-02-24T00:28:40.147Z,19.55
2023-02-24T00:31:11.212Z,13.15
2023-02-24T00:33:39.665Z,17.70
2023-02-24T00:36:08.481Z,18.95
2023-02-24T00:38:36.962Z,21.88
2023-02-24T00:41:14.427Z,8.50
2023-02-24T00:43:46.818Z,38.10
2023-02-24T00:46:17.698Z,18.58
2023-02-24T00:48:46.996Z,11.00
2023-02-24T00:51:18.013Z,18.42
2023-02-24T00:53:45.772Z,8.50
2023-02-24T00:56:13.383Z,9.40
2023-02-24T00:58:41.113Z,8.10
2023-02-24T01:01:14.317Z,10.27
2023-02-24T01:03:43.626Z,10.85
2023-02-24T01:06:12.338Z,13.07
2023-02-24T01:08:47.375Z,8.60
2023-02-24T01:11:33.863Z,8.82
2023-02-24T01:14:01.573Z,9.35
2023-02-24T01:16:29.200Z,10.88
2023-02-24T01:18:58.189Z,13.05
2023-02-24T01:21:25.767Z,12.95
2023-02-24T01:23:55.054Z,12.57
2023-02-24T01:26:23.114Z,17.38
2023-02-24T01:28:51.496Z,13.35
2023-02-24T01:31:21.401Z,17.92
2023-02-24T01:33:50.019Z,14.35
2023-02-24T01:36:21.110Z,6.90
2023-02-24T01:38:50.094Z,5.03
2023-02-24T01:44:33.246Z,15.10
2023-02-24T01:47:01.471Z,7.75
2023-02-24T01:49:33.101Z,9.05
2023-02-24T01:52:04.853Z,7.55
2023-02-24T01:54:34.432Z,11.07
2023-02-24T01:57:05.713Z,8.98
2023-02-24T01:59:35.544Z,4.18
2023-02-24T02:02:05.093Z,6.82
2023-02-24T02:04:36.527Z,4.47
2023-02-24T02:07:05.735Z,4.38
2023-02-24T02:09:34.122Z,7.43
2023-02-24T02:12:01.727Z,14.73
2023-02-24T02:14:32.126Z,9.98
2023-02-24T02:17:08.932Z,10.13
2023-02-24T02:19:47.087Z,10.57
2023-02-24T02:22:26.584Z,4.20
2023-02-24T02:24:55.307Z,2.88
2023-02-24T02:27:32.078Z,6.82
2023-02-24T02:30:14.542Z,8.38
2023-02-24T02:33:01.816Z,10.15
2023-02-24T02:35:36.830Z,6.75
2023-02-24T02:38:09.356Z,6.20
2023-02-24T02:40:41.858Z,5.40
2023-02-24T02:43:16.149Z,4.65
2023-02-24T02:45:47.707Z,8.82
2023-02-24T02:48:17.967Z,4.55
2023-02-24T02:50:49.236Z,6.05
2023-02-24T02:53:20.435Z,4.18
2023-02-24T02:55:49.435Z,7.00
2023-02-24T02:58:20.113Z,3.00
2023-02-24T03:00:59.033Z,6.93
2023-02-24T03:03:28.041Z,9.35
2023-02-24T03:05:58.348Z,3.58
2023-02-24T03:08:27.000Z,5.43
2023-02-24T03:10:55.003Z,7.43
2023-02-24T03:13:24.103Z,11.57
2023-02-24T03:15:52.972Z,8.60
2023-02-24T03:18:25.614Z,7.05
2023-02-24T03:20:57.327Z,8.52
2023-02-24T03:23:30.119Z,3.45
2023-02-24T03:25:59.772Z,8.27
2023-02-24T03:28:34.068Z,3.88
2023-02-24T03:31:03.788Z,7.22
2023-02-24T03:33:35.360Z,5.10
2023-02-24T03:36:03.223Z,6.65
2023-02-24T03:38:34.122Z,5.18
2023-02-24T03:41:01.801Z,4.68
2023-02-24T03:43:30.695Z,9.77
2023-02-24T03:45:59.507Z,7.97
2023-02-24T03:48:28.214Z,9.65
2023-02-24T03:50:56.663Z,10.43
2023-02-24T03:53:31.560Z,11.48
2023-02-24T03:56:11.102Z,6.93
2023-02-24T03:58:44.104Z,4.60
2023-02-24T04:01:14.129Z,4.78
2023-02-24T04:03:47.670Z,14.70
2023-02-24T04:06:20.007Z,3.28
2023-02-24T04:08:52.140Z,4.78
2023-02-24T04:11:24.201Z,8.55
2023-02-24T04:13:53.074Z,5.95
2023-02-24T04:16:29.146Z,7.40
2023-02-24T04:18:59.261Z,4.15
2023-02-24T04:21:30.395Z,7.57
2023-02-24T04:23:58.917Z,6.78
2023-02-24T04:26:28.525Z,9.00
2023-02-24T04:28:56.367Z,10.43
2023-02-24T04:31:26.381Z,10.43
2023-02-24T04:33:54.377Z,11.93
2023-02-24T04:36:22.729Z,8.30
2023-02-24T04:38:50.717Z,4.90
2023-02-24T04:41:21.489Z,11.00
2023-02-24T04:43:51.836Z,5.65
2023-02-24T04:46:19.820Z,13.95
2023-02-24T04:48:47.512Z,4.10
2023-02-24T04:51:15.578Z,22.33
2023-02-24T04:53:43.389Z,10.85
2023-02-24T04:56:11.119Z,9.80
2023-02-24T04:58:39.755Z,6.35
2023-02-24T05:01:11.676Z,3.20
2023-02-24T05:03:42.589Z,2.40
2023-02-24T05:06:14.417Z,8.75
2023-02-24T05:08:42.072Z,21.15
2023-02-24T05:11:15.899Z,7.50
2023-02-24T05:13:46.190Z,5.72
2023-02-24T05:16:17.679Z,8.43
2023-02-24T05:18:45.710Z,6.38
2023-02-24T05:21:32.417Z,9.63
2023-02-24T05:24:05.005Z,6.88
2023-02-24T05:26:35.872Z,10.90
2023-02-24T05:29:04.699Z,4.53
2023-02-24T05:31:33.716Z,3.33
2023-02-24T05:34:02.721Z,11.13
2023-02-24T05:36:31.887Z,6.15
2023-02-24T05:39:06.739Z,5.78
2023-02-24T05:41:36.044Z,6.97
2023-02-24T05:44:08.583Z,6.47
2023-02-24T05:46:41.148Z,7.15
2023-02-24T05:49:14.324Z,4.60
2023-02-24T05:51:43.667Z,7.82
2023-02-24T05:54:13.055Z,4.38
2023-02-24T05:56:43.928Z,6.65
2023-02-24T05:59:13.058Z,4.45
2023-02-24T06:01:42.592Z,9.13
2023-02-24T06:04:10.667Z,5.13
2023-02-24T06:06:39.480Z,2.28
2023-02-24T06:09:12.955Z,5.00
2023-02-24T06:11:41.760Z,9.20
2023-02-24T06:14:09.994Z,8.63
2023-02-24T06:16:39.999Z,4.93
2023-02-24T06:19:10.356Z,8.88
2023-02-24T06:21:41.494Z,6.18
2023-02-24T06:24:14.511Z,6.72
2023-02-24T06:26:43.370Z,8.98
2023-02-24T06:29:15.242Z,12.05
2023-02-24T06:31:43.709Z,7.70
2023-02-24T06:34:13.154Z,8.55
2023-02-24T06:36:40.782Z,7.28
2023-02-24T06:39:09.124Z,5.25
2023-02-24T06:41:37.978Z,12.63
2023-02-24T06:44:05.599Z,9.38
2023-02-24T06:46:33.341Z,3.95
2023-02-24T06:49:01.089Z,10.90
2023-02-24T06:51:30.926Z,7.40
2023-02-24T06:53:59.541Z,8.07
2023-02-24T06:56:27.746Z,4.63
2023-02-24T06:58:56.856Z,14.88
2023-02-24T07:01:26.082Z,6.68
2023-02-24T07:04:17.777Z,14.18
2023-02-24T07:06:47.839Z,12.43
2023-02-24T07:09:16.688Z,12.68
2023-02-24T07:11:46.869Z,11.95
2023-02-24T07:14:14.671Z,7.97
2023-02-24T07:16:45.490Z,8.52
2023-02-24T07:19:14.160Z,4.15
2023-02-24T07:21:43.467Z,8.35
2023-02-24T07:24:13.401Z,6.60
2023-02-24T07:26:42.267Z,4.90
2023-02-24T07:29:11.461Z,6.82
2023-02-24T07:31:39.905Z,8.68
2023-02-24T07:34:07.797Z,10.30
2023-02-24T07:36:48.491Z,6.63
2023-02-24T07:39:18.381Z,3.60
2023-02-24T07:41:49.452Z,10.15
2023-02-24T07:44:17.849Z,11.35
2023-02-24T07:46:45.590Z,9.68
2023-02-24T07:49:14.805Z,11.48
2023-02-24T07:51:43.255Z,8.90
2023-02-24T07:54:11.558Z,6.00
2023-02-24T07:56:46.225Z,6.88
2023-02-24T07:59:15.881Z,4.60
2023-02-24T08:01:49.897Z,4.03
2023-02-24T08:04:19.027Z,5.88
2023-02-24T08:06:50.337Z,5.03
2023-02-24T08:09:19.254Z,8.27
2023-02-24T08:11:52.263Z,5.00
2023-02-24T08:14:20.313Z,4.30
2023-02-24T08:16:49.082Z,5.85
2023-02-24T08:19:20.986Z,4.95
2023-02-24T08:21:50.507Z,9.40
2023-02-24T08:24:18.982Z,7.13
2023-02-24T08:27:03.934Z,5.90
2023-02-24T08:29:31.912Z,8.10
2023-02-24T08:31:59.786Z,6.03
2023-02-24T08:34:31.829Z,12.73
2023-02-24T08:37:00.460Z,7.15
2023-02-24T08:39:30.257Z,6.85
2023-02-24T08:41:59.495Z,7.90
2023-02-24T08:44:28.098Z,6.43
2023-02-24T08:46:56.391Z,3.97
2023-02-24T08:49:25.539Z,6.78
2023-02-24T08:51:54.007Z,5.97
2023-02-24T08:54:27.356Z,2.85
2023-02-24T08:56:56.885Z,5.40
2023-02-24T08:59:46.280Z,8.05
2023-02-24T09:02:24.385Z,5.45
2023-02-24T09:04:54.021Z,6.28
2023-02-24T09:07:23.124Z,5.75
2023-02-24T09:09:56.399Z,6.80
2023-02-24T09:12:25.617Z,9.45
2023-02-24T09:14:56.586Z,5.15
2023-02-24T09:17:40.253Z,13.27
2023-02-24T09:20:49.060Z,4.53
2023-02-24T09:23:20.984Z,4.55
2023-02-24T09:25:50.579Z,3.58
2023-02-24T09:28:19.030Z,7.28
2023-02-24T09:30:53.463Z,5.72
2023-02-24T09:33:23.080Z,10.10
2023-02-24T09:36:03.008Z,4.78
2023-02-24T09:38:49.379Z,9.32
2023-02-24T09:41:32.172Z,4.35
2023-02-24T09:44:07.722Z,3.97
2023-02-24T09:46:40.487Z,5.22
2023-02-24T09:49:13.824Z,5.65
2023-02-24T09:51:43.476Z,12.07
2023-02-24T09:54:18.434Z,7.95
2023-02-24T09:56:57.275Z,3.88
2023-02-24T09:59:28.342Z,2.58
2023-02-24T10:02:02.988Z,3.50
2023-02-24T10:04:49.345Z,7.68
2023-02-24T10:07:19.053Z,5.22
2023-02-24T10:09:49.887Z,3.47
2023-02-24T10:12:19.275Z,6.00
2023-02-24T10:14:53.011Z,5.32
2023-02-24T10:17:24.542Z,1.85
2023-02-24T10:20:00.166Z,9.95
2023-02-24T10:22:39.867Z,3.28
2023-02-24T10:25:21.484Z,7.25
2023-02-24T10:27:57.907Z,5.25
2023-02-24T10:30:40.800Z,5.60
2023-02-24T10:33:20.619Z,7.63
2023-02-24T10:35:50.197Z,11.80
2023-02-24T10:38:17.801Z,8.30
2023-02-24T10:40:47.270Z,8.23
2023-02-24T10:43:17.857Z,5.38
2023-02-24T10:45:46.304Z,8.52
2023-02-24T10:48:41.416Z,9.13
2023-02-24T10:51:12.390Z,6.47
2023-02-24T10:53:41.021Z,7.47
2023-02-24T10:56:27.076Z,4.03
2023-02-24T10:59:20.659Z,8.57
2023-02-24T11:01:59.231Z,10.15
2023-02-24T11:04:53.987Z,4.50
2023-02-24T11:07:43.839Z,11.02
2023-02-24T11:10:13.787Z,7.65
2023-02-24T11:13:09.163Z,7.13
2023-02-24T11:15:54.835Z,6.00
2023-02-24T11:18:24.292Z,7.43
2023-02-24T11:20:55.481Z,5.93
2023-02-24T11:23:24.626Z,7.22
2023-02-24T11:25:53.496Z,8.50
2023-02-24T11:28:39.995Z,10.35
2023-02-24T11:31:14.539Z,10.38
2023-02-24T11:33:47.426Z,7.25
2023-02-24T11:36:25.570Z,10.02
2023-02-24T11:39:15.446Z,5.60
2023-02-24T11:41:46.724Z,13.95
2023-02-24T11:44:20.699Z,5.07
2023-02-24T11:46:50.057Z,4.88
2023-02-24T11:49:23.087Z,8.73
2023-02-24T11:51:53.224Z,7.03
2023-02-24T11:54:20.846Z,7.47
2023-02-24T11:56:52.022Z,8.48
2023-02-24T11:59:22.317Z,6.47
2023-02-24T12:01:53.546Z,7.00
2023-02-24T12:04:24.446Z,8.27
2023-02-24T12:06:58.147Z,6.53
2023-02-24T12:09:27.815Z,12.65
2023-02-24T12:11:58.105Z,6.15
2023-02-24T12:14:31.902Z,12.88
2023-02-24T12:17:07.816Z,8.60
2023-02-24T12:19:39.341Z,9.93
2023-02-24T12:22:12.960Z,4.45
2023-02-24T12:24:47.344Z,7.53
2023-02-24T12:27:18.524Z,7.72
2023-02-24T12:29:54.655Z,9.10
2023-02-24T12:32:31.291Z,9.85
2023-02-24T12:35:06.680Z,5.40
2023-02-24T12:40:11.976Z,5.40
2023-02-24T12:42:44.173Z,7.05
2023-02-24T12:45:15.913Z,11.50
2023-02-24T12:47:51.149Z,7.30
2023-02-24T12:50:27.350Z,11.25
2023-02-24T12:52:59.201Z,6.07
2023-02-24T12:55:29.804Z,5.18
2023-02-24T12:58:01.146Z,6.63
2023-02-24T13:00:32.061Z,4.53
2023-02-24T13:03:04.172Z,8.40
2023-02-24T13:05:35.108Z,6.13
2023-02-24T13:08:10.389Z,7.60
2023-02-24T13:10:43.549Z,8.07
2023-02-24T13:13:14.382Z,9.23
2023-02-24T13:15:50.056Z,6.45
2023-02-24T13:18:24.982Z,14.00
2023-02-24T13:21:03.188Z,18.17
2023-02-24T13:23:32.795Z,11.20
2023-02-24T13:26:01.861Z,8.30
2023-02-24T13:28:31.260Z,10.60
2023-02-24T13:30:59.950Z,10.40
2023-02-24T13:33:30.496Z,12.07
2023-02-24T13:36:22.741Z,8.32
2023-02-24T13:38:56.449Z,13.32
2023-02-24T13:41:35.377Z,10.00
2023-02-24T13:44:04.610Z,10.57
2023-02-24T13:46:36.117Z,7.88
2023-02-24T13:49:29.411Z,17.75
2023-02-24T13:52:00.341Z,16.15
2023-02-24T13:54:45.680Z,15.68
2023-02-24T13:57:26.867Z,18.63
2023-02-24T14:00:02.788Z,20.95
2023-02-24T14:02:31.820Z,22.95
2023-02-24T14:05:00.530Z,23.08
2023-02-24T14:07:29.452Z,20.08
2023-02-24T14:09:58.531Z,20.63
2023-02-24T14:12:28.612Z,18.38
2023-02-24T14:14:56.657Z,15.27
2023-02-24T14:17:28.638Z,18.90
2023-02-24T14:19:57.424Z,14.55
2023-02-24T14:22:25.138Z,18.75
2023-02-24T14:25:01.884Z,19.10
2023-02-24T14:27:30.941Z,15.25
2023-02-24T14:29:58.662Z,16.27
2023-02-24T14:32:27.889Z,18.17
2023-02-24T14:34:56.018Z,12.55
2023-02-24T14:37:27.526Z,18.98
2023-02-24T14:39:56.054Z,15.20
2023-02-24T14:42:24.019Z,15.10
2023-02-24T14:44:54.102Z,12.70
2023-02-24T14:47:22.776Z,19.42
2023-02-24T14:49:53.930Z,18.05
2023-02-24T14:52:26.616Z,18.10
2023-02-24T14:54:57.127Z,16.38
2023-02-24T14:57:25.930Z,16.50
2023-02-24T14:59:56.607Z,14.05
2023-02-24T15:02:28.790Z,12.20
2023-02-24T15:04:56.948Z,18.80
2023-02-24T15:07:26.274Z,14.27
2023-02-24T15:09:54.875Z,14.50
2023-02-24T15:12:24.398Z,15.63
2023-02-24T15:14:53.338Z,19.67
2023-02-24T15:17:23.233Z,12.55
2023-02-24T15:19:56.652Z,12.65
2023-02-24T15:22:26.024Z,16.42
2023-02-24T15:24:55.780Z,24.35
2023-02-24T15:27:24.961Z,17.42
2023-02-24T15:30:01.084Z,17.25
2023-02-24T15:32:31.158Z,22.77
2023-02-24T15:34:59.093Z,18.92
2023-02-24T15:37:27.514Z,17.40
2023-02-24T15:40:01.939Z,23.33
2023-02-24T15:42:33.673Z,23.52
2023-02-24T15:45:02.419Z,20.83
2023-02-24T15:47:32.532Z,19.80
2023-02-24T15:50:00.474Z,15.48
2023-02-24T15:52:28.933Z,28.33
2023-02-24T15:54:57.969Z,22.20
2023-02-24T15:57:26.104Z,23.17
2023-02-24T15:59:53.765Z,19.48
2023-02-24T16:02:22.739Z,27.13
2023-02-24T16:04:52.635Z,17.30
2023-02-24T16:07:21.482Z,19.45
2023-02-24T16:09:50.711Z,20.92
2023-02-24T16:12:21.750Z,19.75
2023-02-24T16:14:54.161Z,22.38
2023-02-24T16:17:25.938Z,23.77
2023-02-24T16:19:56.907Z,16.45
2023-02-24T16:22:25.080Z,19.65
2023-02-24T16:24:53.790Z,15.57
2023-02-24T16:27:22.366Z,14.85
2023-02-24T16:29:51.215Z,18.08
2023-02-24T16:32:21.584Z,21.08
2023-02-24T16:34:49.427Z,21.60
2023-02-24T16:37:19.730Z,13.68
2023-02-24T16:39:47.702Z,15.00
2023-02-24T16:42:15.321Z,16.58
2023-02-24T16:44:45.544Z,18.80
2023-02-24T16:47:17.744Z,20.25
2023-02-24T16:49:45.550Z,18.98
2023-02-24T16:52:13.738Z,19.77
2023-02-24T16:54:42.769Z,16.45
2023-02-24T16:57:10.543Z,24.63
2023-02-24T16:59:38.169Z,23.23
2023-02-24T17:02:06.004Z,18.90
2023-02-24T17:04:33.747Z,14.00
2023-02-24T17:07:01.467Z,17.98
2023-02-24T17:09:29.992Z,17.50
2023-02-24T17:12:01.141Z,17.50
2023-02-24T17:14:29.037Z,16.25
2023-02-24T17:17:02.403Z,22.67
2023-02-24T17:19:30.057Z,11.73
2023-02-24T17:21:57.730Z,8.80
2023-02-24T17:24:25.382Z,8.75
2023-02-24T17:26:58.764Z,6.63
2023-02-24T17:29:27.965Z,10.27
2023-02-24T17:31:55.799Z,4.55
2023-02-24T17:34:24.238Z,8.02
2023-02-24T17:36:53.693Z,11.43
2023-02-24T17:39:21.327Z,6.68
2023-02-24T17:41:49.093Z,8.48
2023-02-24T17:44:16.755Z,6.55
2023-02-24T17:46:45.883Z,8.27
2023-02-24T17:49:13.542Z,9.77
2023-02-24T17:51:41.215Z,7.25
2023-02-24T17:54:09.000Z,6.80
2023-02-24T17:56:36.654Z,9.63
2023-02-24T17:59:04.308Z,16.17
2023-02-24T18:01:31.981Z,6.32
2023-02-24T18:04:00.951Z,4.25
2023-02-24T18:06:28.728Z,15.38
2023-02-24T18:08:57.175Z,6.63
2023-02-24T18:11:24.972Z,15.10
2023-02-24T18:13:55.145Z,7.10
2023-02-24T18:16:23.146Z,11.00
2023-02-24T18:18:51.706Z,9.35
2023-02-24T18:21:20.695Z,8.65
2023-02-24T18:23:49.678Z,7.55
2023-02-24T18:26:17.521Z,8.77
2023-02-24T18:28:45.525Z,7.93
2023-02-24T18:31:14.231Z,11.25
2023-02-24T18:33:41.988Z,5.32
2023-02-24T18:39:09.041Z,9.20
2023-02-24T18:41:36.878Z,7.40
2023-02-24T18:44:04.484Z,7.05
2023-02-24T18:46:32.194Z,13.93
2023-02-24T18:48:59.898Z,8.52
2023-02-24T18:51:29.346Z,5.80
2023-02-24T18:53:58.406Z,11.38
2023-02-24T18:56:28.924Z,3.85
2023-02-24T18:58:57.873Z,10.80
2023-02-24T19:01:40.065Z,13.40
2023-02-24T19:04:08.446Z,7.25
2023-02-24T19:06:36.785Z,9.20
2023-02-24T19:09:06.134Z,11.93
2023-02-24T19:11:36.129Z,5.78
2023-02-24T19:14:03.908Z,17.73
2023-02-24T19:16:31.927Z,10.93
2023-02-24T19:19:08.701Z,12.32
2023-02-24T19:21:38.854Z,12.63
2023-02-24T19:24:08.466Z,6.22
2023-02-24T19:26:39.957Z,13.57
2023-02-24T19:29:07.626Z,11.68
2023-02-24T19:31:36.050Z,7.68
2023-02-24T19:34:04.626Z,7.93
2023-02-24T19:36:33.734Z,7.82
2023-02-24T19:39:01.469Z,7.07
2023-02-24T19:41:29.431Z,6.30
2023-02-24T19:43:58.392Z,12.73
2023-02-24T19:46:26.512Z,3.25
2023-02-24T19:48:56.840Z,10.10
2023-02-24T19:51:27.163Z,18.17
2023-02-24T19:53:55.260Z,5.07
2023-02-24T19:56:23.642Z,5.80
2023-02-24T19:58:53.300Z,8.23
2023-02-24T20:01:29.638Z,5.95
2023-02-24T20:03:58.316Z,5.82
2023-02-24T20:06:28.858Z,6.75
2023-02-24T20:08:58.058Z,4.93
2023-02-24T20:11:26.355Z,8.25
2023-02-24T20:13:54.209Z,5.40
2023-02-24T20:16:25.045Z,7.40
2023-02-24T20:18:55.279Z,5.55
2023-02-24T20:21:23.150Z,2.95
2023-02-24T20:23:51.069Z,5.82
2023-02-24T20:26:19.051Z,5.63
2023-02-24T20:28:47.152Z,11.13
2023-02-24T20:31:17.083Z,7.40
2023-02-24T20:33:44.822Z,7.97
2023-02-24T20:36:14.882Z,7.20
2023-02-24T20:38:42.658Z,3.88
2023-02-24T20:41:10.327Z,3.22
2023-02-24T20:43:38.015Z,5.95
2023-02-24T20:46:11.863Z,8.35
2023-02-24T20:48:39.512Z,8.35
2023-02-24T20:51:07.471Z,6.40
2023-02-24T20:53:51.068Z,11.77
2023-02-24T20:56:24.845Z,6.63
2023-02-24T20:58:53.933Z,4.68
2023-02-24T21:01:22.401Z,4.57
2023-02-24T21:03:51.539Z,4.55
2023-02-24T21:06:19.247Z,3.75
2023-02-24T21:08:48.280Z,12.10
2023-02-24T21:11:16.451Z,8.35
2023-02-24T21:13:44.881Z,3.72
2023-02-24T21:16:13.459Z,5.88
2023-02-24T21:18:42.280Z,4.95
2023-02-24T21:21:10.606Z,7.45
2023-02-24T21:23:39.053Z,9.18
2023-02-24T21:26:08.414Z,10.13
2023-02-24T21:28:36.177Z,2.90
2023-02-24T21:31:08.201Z,8.70
2023-02-24T21:33:35.897Z,5.88
2023-02-24T21:36:06.569Z,9.95
2023-02-24T21:38:35.321Z,5.97
2023-02-24T21:41:03.472Z,6.85
2023-02-24T21:43:32.467Z,15.05
2023-02-24T21:46:01.717Z,3.97
2023-02-24T21:48:29.467Z,6.88
2023-02-24T21:51:00.303Z,5.75
2023-02-24T21:53:28.607Z,7.90
2023-02-24T21:56:05.887Z,5.65
2023-02-24T21:58:35.469Z,6.30
2023-02-24T22:01:09.114Z,7.80
2023-02-24T22:03:36.823Z,6.70
2023-02-24T22:06:04.756Z,5.32
2023-02-24T22:08:32.403Z,6.70
2023-02-24T22:11:00.628Z,6.15
2023-02-24T22:13:28.765Z,6.13
2023-02-24T22:15:59.119Z,7.68
2023-02-24T22:18:26.984Z,9.13
2023-02-24T22:20:54.756Z,6.57
2023-02-24T22:23:22.386Z,3.83
2023-02-24T22:25:50.052Z,6.50
2023-02-24T22:28:17.983Z,5.97
2023-02-24T22:30:47.576Z,4.45
2023-02-24T22:33:16.665Z,5.75
2023-02-24T22:35:44.270Z,7.18
2023-02-24T22:38:12.001Z,10.77
2023-02-24T22:40:39.643Z,6.38
2023-02-24T22:43:07.615Z,6.57
2023-02-24T22:45:35.220Z,5.90
2023-02-24T22:48:03.010Z,7.22
2023-02-24T22:50:32.084Z,9.45
2023-02-24T22:53:00.739Z,12.25
2023-02-24T22:55:29.353Z,11.57
2023-02-24T22:57:56.942Z,6.25
2023-02-24T23:00:26.372Z,6.38
2023-02-24T23:02:53.991Z,12.07
2023-02-24T23:05:21.649Z,10.77
2023-02-24T23:07:50.682Z,7.55
2023-02-24T23:10:18.570Z,4.60
2023-02-24T23:12:46.162Z,6.85
2023-02-24T23:15:13.845Z,8.52
2023-02-24T23:17:42.296Z,7.05
2023-02-24T23:20:12.806Z,8.60
2023-02-24T23:22:40.526Z,8.95
2023-02-24T23:25:10.536Z,4.13
2023-02-24T23:27:38.669Z,7.65
2023-02-24T23:30:08.032Z,5.60
2023-02-24T23:32:35.755Z,6.25
2023-02-24T23:35:03.650Z,4.97
2023-02-24T23:37:31.554Z,11.45
2023-02-24T23:39:59.255Z,4.40
2023-02-24T23:42:28.637Z,16.40
2023-02-24T23:44:56.275Z,5.03
2023-02-24T23:47:23.963Z,16.73
2023-02-24T23:49:52.006Z,9.15
2023-02-24T23:52:19.630Z,6.40
2023-02-24T23:54:49.839Z,9.13
2023-02-24T23:57:18.690Z,15.50
2023-02-24T23:59:47.876Z,11.68
